Time;durP1;ratioP1;P1;durP2;ratioP2;P2;SDS_P1;SDS_P2;PMS_P1;PMS_P2;Temp;Humidity;BMP_temperature;BMP_pressure;BME280_temperature;BME280_humidity;BME280_pressure;Samples;Min_cycle;Max_cycle;Signal;HPM_P1;HPM_P2
2022/05/04 00:00:09;;;;;;;4.20;3.08;;;;;;;10.15;100.00;100710.57;1752382;82;21066;-63
2022/05/04 00:02:42;;;;;;;6.47;3.30;;;;;;;10.35;100.00;100720.57;1752719;82;21034;-63
2022/05/04 00:05:10;;;;;;;3.92;3.30;;;;;;;10.28;100.00;100725.09;1752401;82;21082;-63
2022/05/04 00:07:38;;;;;;;6.80;3.22;;;;;;;10.20;100.00;100720.70;1752631;82;21118;-63
2022/05/04 00:10:07;;;;;;;4.72;3.17;;;;;;;9.98;100.00;100721.98;1752404;82;21074;-63
2022/05/04 00:12:35;;;;;;;6.60;3.30;;;;;;;9.94;100.00;100725.11;1752697;82;21027;-63
2022/05/04 00:15:04;;;;;;;7.80;3.55;;;;;;;9.90;100.00;100727.41;1752391;81;21047;-63
2022/05/04 00:17:31;;;;;;;5.78;3.10;;;;;;;9.86;100.00;100725.02;1752460;82;21024;-64
2022/05/04 00:19:58;;;;;;;5.90;3.40;;;;;;;9.87;100.00;100724.10;1752613;82;21042;-63
2022/05/04 00:22:26;;;;;;;5.60;3.30;;;;;;;9.94;100.00;100726.84;1752377;82;21034;-63
2022/05/04 00:24:54;;;;;;;6.60;3.27;;;;;;;9.90;100.00;100722.27;1752504;80;21031;-63
2022/05/04 00:27:21;;;;;;;6.95;3.50;;;;;;;9.88;100.00;100722.77;1752313;80;21039;-63
2022/05/04 00:29:48;;;;;;;5.05;3.17;;;;;;;9.87;100.00;100724.10;1752342;82;21066;-63
2022/05/04 00:32:19;;;;;;;7.35;3.33;;;;;;;9.86;100.00;100722.44;1752696;82;21039;-62
2022/05/04 00:34:47;;;;;;;5.35;3.37;;;;;;;9.86;100.00;100726.30;1752673;82;21062;-62
2022/05/04 00:37:14;;;;;;;4.75;3.17;;;;;;;9.89;100.00;100721.86;1752652;82;21539;-62
2022/05/04 00:39:41;;;;;;;5.22;3.85;;;;;;;9.99;100.00;100714.18;1752661;82;21046;-62
2022/05/04 00:42:15;;;;;;;5.25;3.33;;;;;;;10.10;100.00;100713.79;1752395;82;21511;-62
2022/05/04 00:44:44;;;;;;;6.87;3.80;;;;;;;10.16;100.00;100716.58;1752775;82;20970;-62
2022/05/04 00:47:12;;;;;;;7.10;3.65;;;;;;;10.16;100.00;100716.58;1752530;82;21491;-62
2022/05/04 00:49:41;;;;;;;4.15;3.47;;;;;;;10.32;100.00;100715.11;1752350;82;21038;-62
2022/05/04 00:52:11;;;;;;;4.90;3.50;;;;;;;10.07;100.00;100711.77;1752548;82;21031;-62
2022/05/04 00:54:38;;;;;;;4.10;3.27;;;;;;;9.97;100.00;100715.14;1752593;82;21070;-62
2022/05/04 00:57:06;;;;;;;3.52;2.87;;;;;;;10.01;100.00;100713.67;1752573;82;21038;-62
2022/05/04 00:59:36;;;;;;;5.00;3.52;;;;;;;9.96;100.00;100711.73;1752623;82;21038;-62
2022/05/04 01:02:05;;;;;;;4.47;3.37;;;;;;;10.00;100.00;100708.16;1752762;82;21021;-62
2022/05/04 01:04:32;;;;;;;3.52;3.10;;;;;;;9.97;100.00;100704.86;1752609;82;21515;-62
2022/05/04 01:07:00;;;;;;;4.87;3.20;;;;;;;9.98;100.00;100706.55;1751824;82;21078;-62
2022/05/04 01:09:27;;;;;;;3.80;3.10;;;;;;;9.97;100.00;100704.40;1752216;82;21054;-62
2022/05/04 01:11:55;;;;;;;4.53;3.40;;;;;;;9.97;100.00;100703.56;1752531;82;21046;-62
2022/05/04 01:14:22;;;;;;;5.87;3.22;;;;;;;9.97;100.00;100699.71;1760196;81;21081;-62
2022/05/04 01:16:49;;;;;;;4.70;3.15;;;;;;;9.90;100.00;100709.41;1766477;81;21046;-62
2022/05/04 01:19:17;;;;;;;3.37;3.02;;;;;;;9.87;100.00;100709.96;1766736;81;21590;-62
2022/05/04 01:21:46;;;;;;;4.25;3.30;;;;;;;9.83;100.00;100712.66;1766532;81;21069;-62
2022/05/04 01:24:14;;;;;;;5.50;3.10;;;;;;;9.75;100.00;100709.97;1766795;81;21006;-62
2022/05/04 01:26:41;;;;;;;5.42;3.05;;;;;;;9.80;100.00;100709.36;1766422;81;21062;-62
2022/05/04 01:29:08;;;;;;;8.28;3.55;;;;;;;9.79;100.00;100703.39;1766360;81;21049;-62
2022/05/04 01:31:36;;;;;;;4.33;3.25;;;;;;;9.83;100.00;100704.09;1766746;81;21073;-62
2022/05/04 01:34:03;;;;;;;6.10;3.50;;;;;;;9.76;100.00;100703.49;1766488;81;21037;-62
2022/05/04 01:36:30;;;;;;;5.17;3.40;;;;;;;9.54;100.00;100700.05;1766833;81;21510;-62
2022/05/04 01:38:58;;;;;;;6.15;3.77;;;;;;;9.50;100.00;100698.48;1766384;80;21056;-62
2022/05/04 01:44:10;;;;;;;4.10;3.42;;;;;;;9.48;100.00;100695.13;1766516;80;21045;-62
2022/05/04 01:46:38;;;;;;;7.92;3.92;;;;;;;9.34;100.00;100701.59;1766651;81;21021;-62
2022/05/04 01:49:05;;;;;;;6.03;3.58;;;;;;;9.43;100.00;100689.72;1766704;81;21080;-62
2022/05/04 01:51:33;;;;;;;6.72;3.83;;;;;;;9.51;100.00;100688.58;1766422;81;21070;-62
2022/05/04 01:54:00;;;;;;;10.65;3.98;;;;;;;9.41;100.00;100684.25;1766721;81;21474;-62
2022/05/04 01:56:27;;;;;;;7.95;3.75;;;;;;;9.42;100.00;100685.45;1766470;81;21493;-62
2022/05/04 01:58:54;;;;;;;8.00;4.30;;;;;;;9.41;100.00;100686.81;1766669;81;21493;-62
2022/05/04 02:01:22;;;;;;;5.75;4.22;;;;;;;9.34;100.00;100692.60;1766647;81;21038;-62
2022/05/04 02:03:49;;;;;;;10.13;4.30;;;;;;;9.28;100.00;100693.27;1766456;81;21038;-63
2022/05/04 02:06:16;;;;;;;7.10;4.45;;;;;;;9.29;100.00;100689.83;1766704;81;21041;-63
2022/05/04 02:08:45;;;;;;;10.53;4.92;;;;;;;9.31;100.00;100686.30;1766391;80;21069;-62
2022/05/04 02:11:13;;;;;;;8.98;4.87;;;;;;;9.12;100.00;100682.25;1766708;81;21550;-62
2022/05/04 02:13:40;;;;;;;8.60;4.85;;;;;;;9.06;100.00;100688.05;1766487;81;21121;-62
2022/05/04 02:16:07;;;;;;;7.47;4.17;;;;;;;9.10;100.00;100695.59;1766308;81;21037;-62
2022/05/04 02:18:35;;;;;;;7.42;4.20;;;;;;;9.01;100.00;100690.34;1766658;81;21065;-62
2022/05/04 02:21:03;;;;;;;10.05;4.40;;;;;;;9.06;100.00;100691.45;1766335;81;21033;-62
2022/05/04 02:23:31;;;;;;;7.25;3.75;;;;;;;9.04;100.00;100693.23;1766617;80;21026;-62
2022/05/04 02:25:58;;;;;;;5.78;3.80;;;;;;;9.00;100.00;100687.81;1766740;81;21495;-62
2022/05/04 02:28:26;;;;;;;9.08;3.98;;;;;;;8.98;100.00;100691.74;1766383;81;21056;-62
2022/05/04 02:30:53;;;;;;;6.25;3.42;;;;;;;8.97;100.00;100696.47;1766737;81;21108;-62
2022/05/04 02:33:21;;;;;;;6.60;3.70;;;;;;;8.98;100.00;100698.16;1766413;81;21085;-61
2022/05/04 02:38:34;;;;;;;7.72;4.00;;;;;;;9.12;100.00;100699.39;1766349;81;21034;-62
2022/05/04 02:41:02;;;;;;;5.53;3.75;;;;;;;9.15;100.00;100696.28;1766682;81;21034;-62
2022/05/04 02:43:29;;;;;;;5.97;3.98;;;;;;;9.14;100.00;100700.18;1766452;81;21030;-62
2022/05/04 02:45:57;;;;;;;5.60;4.05;;;;;;;9.05;100.00;100701.80;1766428;81;21034;-62
2022/05/04 02:48:24;;;;;;;6.40;3.67;;;;;;;9.11;100.00;100699.85;1766974;81;21034;-62
2022/05/04 02:50:52;;;;;;;4.75;3.60;;;;;;;9.18;100.00;100705.15;1766453;81;21029;-62
2022/05/04 02:53:19;;;;;;;7.83;4.15;;;;;;;9.25;100.00;100703.67;1766672;81;21030;-62
2022/05/04 02:55:46;;;;;;;6.12;3.90;;;;;;;9.29;100.00;100700.94;1766540;80;21510;-62
2022/05/04 02:58:13;;;;;;;6.12;3.90;;;;;;;9.33;100.00;100709.38;1766416;81;21045;-62
2022/05/04 03:00:40;;;;;;;5.85;3.90;;;;;;;9.39;100.00;100707.42;1766596;81;21013;-62
2022/05/04 03:03:07;;;;;;;6.50;3.60;;;;;;;9.48;100.00;100711.37;1766488;81;21093;-62
2022/05/04 03:05:35;;;;;;;6.58;4.00;;;;;;;9.52;100.00;100717.25;1766676;81;21034;-62
2022/05/04 03:08:02;;;;;;;4.87;3.70;;;;;;;9.60;100.00;100711.39;1766285;81;21617;-62
2022/05/04 03:11:54;;;;;;;5.53;3.67;;;;;;;9.69;100.00;100711.48;1766411;81;21081;-62
2022/05/04 03:13:00;;;;;;;5.85;3.40;;;;;;;9.78;100.00;100709.87;1762295;81;21014;-62
2022/05/04 03:15:27;;;;;;;6.42;3.70;;;;;;;9.87;100.00;100708.67;1755654;81;21047;-62
2022/05/04 03:17:54;;;;;;;7.58;3.85;;;;;;;9.98;100.00;100707.83;1752716;82;21034;-62
2022/05/04 03:20:22;;;;;;;7.22;3.50;;;;;;;10.06;100.00;100705.80;1752379;82;21027;-62
2022/05/04 03:22:50;;;;;;;5.75;3.65;;;;;;;10.15;100.00;100711.86;1752682;82;21054;-62
2022/05/04 03:25:17;;;;;;;6.65;3.80;;;;;;;10.23;100.00;100716.70;1752494;82;21463;-62
2022/05/04 03:27:46;;;;;;;5.85;3.50;;;;;;;10.33;100.00;100714.19;1752687;82;20995;-63
2022/05/04 03:30:14;;;;;;;4.70;3.40;;;;;;;10.38;100.00;100721.72;1752446;82;21081;-62
2022/05/04 03:32:41;;;;;;;5.50;3.35;;;;;;;10.50;100.00;100722.55;1752689;82;21073;-62
2022/05/04 03:35:09;;;;;;;4.78;3.60;;;;;;;10.60;100.00;100723.84;1753135;82;21078;-62
2022/05/04 03:37:36;;;;;;;7.22;3.37;;;;;;;10.66;100.00;100721.45;1752664;82;21023;-62
2022/05/04 03:40:05;;;;;;;6.60;3.65;;;;;;;10.76;100.00;100719.33;1752647;82;21057;-62
2022/05/04 03:42:32;;;;;;;5.05;3.65;;;;;;;10.81;100.00;100720.83;1752559;82;20994;-62
2022/05/04 03:44:59;;;;;;;7.85;3.58;;;;;;;10.90;100.00;100722.63;1752660;82;21046;-62
2022/05/04 03:47:26;;;;;;;7.67;3.58;;;;;;;10.98;100.00;100717.98;1752480;82;21007;-62
2022/05/04 03:49:54;;;;;;;6.92;3.67;;;;;;;11.17;100.00;100721.47;1752449;82;21082;-62
2022/05/04 03:52:21;;;;;;;7.67;3.47;;;;;;;11.18;100.00;100721.00;1721320;82;21011;-62
2022/05/04 03:54:48;;;;;;;5.08;3.20;;;;;;;11.27;100.00;100720.59;1752364;82;21027;-62
2022/05/04 03:57:16;;;;;;;4.28;3.30;;;;;;;11.38;100.00;100726.13;1752435;82;21051;-62
2022/05/04 03:59:43;;;;;;;5.80;3.50;;;;;;;11.50;100.00;100718.77;1752372;82;21034;-62
2022/05/04 04:02:10;;;;;;;7.72;3.70;;;;;;;11.62;100.00;100720.80;1752714;82;21034;-62
2022/05/04 04:04:37;;;;;;;8.28;3.85;;;;;;;11.70;100.00;100721.28;1752453;82;21043;-63
2022/05/04 04:07:09;;;;;;;6.25;4.03;;;;;;;11.81;100.00;100716.45;1752426;80;21164;-62
2022/05/04 04:09:36;;;;;;;7.83;3.95;;;;;;;11.92;100.00;100718.59;1752534;82;21078;-62
2022/05/04 04:12:04;;;;;;;8.28;4.60;;;;;;;12.07;100.00;100708.00;1752437;82;21054;-62
2022/05/04 04:14:32;;;;;;;8.30;4.42;;;;;;;12.34;100.00;100707.59;1756158;81;21030;-62
2022/05/04 04:16:59;;;;;;;8.75;4.80;;;;;;;12.46;99.27;100704.41;1766412;81;21074;-62
2022/05/04 04:19:27;;;;;;;9.35;4.62;;;;;;;12.62;98.40;100707.08;1766312;81;21030;-62
2022/05/04 04:21:54;;;;;;;11.25;5.05;;;;;;;12.61;97.83;100707.98;1766509;81;21454;-62
2022/05/04 04:24:23;;;;;;;9.40;4.95;;;;;;;12.66;97.96;100706.48;1766327;81;21002;-62
2022/05/04 04:26:53;;;;;;;9.90;5.47;;;;;;;12.71;97.56;100698.89;1766580;81;21561;-62
2022/05/04 04:29:20;;;;;;;11.20;6.03;;;;;;;12.87;94.92;100699.39;1766354;81;21026;-62
2022/05/04 04:31:47;;;;;;;11.28;7.30;;;;;;;12.98;95.89;100699.23;1766602;81;21137;-62
2022/05/04 04:34:14;;;;;;;13.28;6.67;;;;;;;13.13;94.43;100698.06;1766349;81;21069;-62
2022/05/04 04:36:43;;;;;;;10.40;6.78;;;;;;;13.29;95.54;100692.50;1766418;81;21478;-62
2022/05/04 04:39:11;;;;;;;13.08;7.30;;;;;;;13.50;94.77;100689.70;1766654;81;21011;-62
2022/05/04 04:41:39;;;;;;;16.65;8.90;;;;;;;13.61;94.48;100691.27;1766375;81;21023;-62
2022/05/04 04:44:06;;;;;;;15.70;9.18;;;;;;;13.75;93.32;100687.47;1766505;81;21069;-63
2022/05/04 04:46:34;;;;;;;16.02;9.60;;;;;;;13.95;92.92;100681.64;1766228;80;21090;-63
2022/05/04 04:49:01;;;;;;;19.45;9.30;;;;;;;14.00;90.02;100681.77;1766542;81;21510;-63
2022/05/04 04:51:28;;;;;;;15.65;9.20;;;;;;;14.11;90.49;100683.77;1766810;81;21085;-63
2022/05/04 04:53:56;;;;;;;16.37;9.60;;;;;;;14.25;90.55;100679.09;1766394;81;21010;-63
2022/05/04 04:56:23;;;;;;;16.77;8.85;;;;;;;14.35;90.68;100685.88;1766558;81;21597;-63
2022/05/04 04:58:50;;;;;;;13.95;8.28;;;;;;;14.43;90.09;100684.52;1766795;81;21486;-63
2022/05/04 05:01:19;;;;;;;15.03;9.15;;;;;;;14.55;88.65;100677.80;1766448;81;21474;-63
2022/05/04 05:03:46;;;;;;;16.20;8.90;;;;;;;14.65;87.04;100683.78;1766608;81;21030;-65
2022/05/04 05:06:13;;;;;;;15.18;9.10;;;;;;;14.72;85.97;100680.75;1766361;81;20999;-63
2022/05/04 05:08:41;;;;;;;14.95;8.60;;;;;;;14.76;86.29;100683.97;1766543;81;21542;-64
2022/05/04 05:11:09;;;;;;;18.55;8.75;;;;;;;14.98;85.73;100683.09;1766502;81;21085;-63
2022/05/04 05:16:06;;;;;;;14.68;8.18;;;;;;;14.91;84.58;100676.59;1766523;81;21518;-64
2022/05/04 05:16:08;;;;;;;14.40;8.80;;;;;;;15.03;84.74;100670.67;1751620;80;21106;-64
2022/05/04 05:18:37;;;;;;;17.98;8.93;;;;;;;15.14;84.05;100676.50;1752525;82;21111;-64
2022/05/04 05:21:05;;;;;;;16.42;9.55;;;;;;;15.20;84.50;100668.82;1752787;82;21566;-64
2022/05/04 05:23:32;;;;;;;18.80;9.73;;;;;;;15.23;83.77;100667.35;1752505;82;21062;-64
2022/05/04 05:26:00;;;;;;;19.82;9.80;;;;;;;15.29;82.49;100673.90;1752355;82;21030;-61
2022/05/04 05:28:27;;;;;;;18.87;9.85;;;;;;;15.36;83.69;100666.95;1752610;82;21550;-63
2022/05/04 05:30:54;;;;;;;15.83;9.68;;;;;;;15.49;83.69;100667.05;1752755;82;21010;-62
2022/05/04 05:33:21;;;;;;;16.57;10.05;;;;;;;15.59;83.10;100673.33;1752525;82;21115;-62
2022/05/04 05:35:49;;;;;;;18.77;10.23;;;;;;;15.77;81.96;100666.63;1787517;80;21035;-63
2022/05/04 05:38:16;;;;;;;16.35;9.23;;;;;;;15.85;80.46;100671.34;1787289;80;21054;-62
2022/05/04 05:40:43;;;;;;;18.77;9.35;;;;;;;15.95;80.01;100665.45;1787275;80;21003;-63
2022/05/04 05:43:10;;;;;;;13.70;9.13;;;;;;;16.02;79.32;100665.44;1787493;80;21062;-63
2022/05/04 05:45:38;;;;;;;15.45;8.80;;;;;;;16.11;79.37;100660.58;1787506;80;21030;-63
2022/05/04 05:48:06;;;;;;;15.20;8.68;;;;;;;16.01;78.79;100654.67;1787179;80;21057;-63
2022/05/04 05:50:35;;;;;;;15.95;9.25;;;;;;;16.15;79.33;100653.78;1787583;80;21046;-64
2022/05/04 05:53:03;;;;;;;15.25;8.25;;;;;;;16.33;79.36;100648.33;1787621;80;21002;-63
2022/05/04 05:55:30;;;;;;;15.75;8.63;;;;;;;16.44;77.24;100654.92;1787194;80;21042;-63
2022/05/04 05:58:02;;;;;;;14.10;8.35;;;;;;;16.50;78.21;100654.52;1787351;80;21030;-63
2022/05/04 06:00:27;;;;;;;14.38;8.63;;;;;;;16.73;79.31;100652.99;1785772;80;21030;-63
2022/05/04 06:02:56;;;;;;;16.77;9.03;;;;;;;16.93;77.27;100648.22;1787258;80;21065;-63
2022/05/04 06:05:24;;;;;;;11.12;7.75;;;;;;;17.06;77.11;100656.03;1787542;80;21081;-63
2022/05/04 06:07:52;;;;;;;12.45;7.58;;;;;;;17.22;76.92;100650.13;1787118;80;21058;-63
2022/05/04 06:10:19;;;;;;;15.50;7.83;;;;;;;17.50;76.73;100652.06;1787254;80;21097;-63
2022/05/04 06:12:48;;;;;;;14.20;7.67;;;;;;;17.63;76.26;100647.19;1787177;80;21030;-63
2022/05/04 06:15:15;;;;;;;13.72;6.95;;;;;;;17.81;74.92;100647.64;1784267;80;21078;-63
2022/05/04 06:17:44;;;;;;;9.85;6.22;;;;;;;17.86;74.49;100649.11;1777391;79;21085;-63
2022/05/04 06:20:11;;;;;;;12.55;7.22;;;;;;;17.76;72.00;100651.51;1777063;80;21049;-63
2022/05/04 06:22:39;;;;;;;9.68;6.83;;;;;;;17.76;72.97;100653.66;1777465;81;21033;-62
2022/05/04 06:25:07;;;;;;;12.05;6.95;;;;;;;17.72;70.34;100644.41;1777418;81;21568;-62
2022/05/04 06:27:34;;;;;;;14.05;7.00;;;;;;;17.84;71.42;100645.79;1777447;81;21038;-63
2022/05/04 06:35:33;;;;;;;10.82;6.75;;;;;;;18.14;70.41;100647.45;1777504;80;21088;-61
2022/05/04 06:38:01;;;;;;;13.13;7.05;;;;;;;18.21;71.07;100644.77;1777332;80;21009;-62
2022/05/04 06:40:28;;;;;;;12.20;6.70;;;;;;;18.26;69.98;100646.20;1777436;81;21085;-62
2022/05/04 06:42:55;;;;;;;11.73;6.17;;;;;;;18.35;69.53;100640.28;1777256;81;21073;-62
2022/05/04 06:45:23;;;;;;;9.08;6.00;;;;;;;18.50;70.54;100640.93;1777491;81;21478;-62
2022/05/04 06:47:50;;;;;;;11.57;7.40;;;;;;;18.62;69.76;100639.52;1777725;81;21542;-62
2022/05/04 06:50:18;;;;;;;12.93;7.17;;;;;;;18.76;70.03;100638.47;1777345;80;21026;-62
2022/05/04 06:52:46;;;;;;;11.85;6.80;;;;;;;18.88;69.59;100641.14;1777598;79;21085;-63
2022/05/04 06:55:14;;;;;;;11.15;6.35;;;;;;;18.98;69.58;100632.95;1797029;79;21007;-63
2022/05/04 06:57:41;;;;;;;12.50;6.30;;;;;;;19.16;68.77;100628.05;1774699;79;21041;-63
2022/05/04 07:00:10;;;;;;;9.20;6.20;;;;;;;19.28;69.92;100621.91;1805223;79;21088;-63
2022/05/04 07:02:37;;;;;;;9.58;5.78;;;;;;;19.50;69.90;100625.39;1805650;79;21049;-62
2022/05/04 07:05:07;;;;;;;13.98;6.50;;;;;;;19.76;65.97;100620.73;1805628;79;21014;-63
2022/05/04 07:07:34;;;;;;;9.43;5.80;;;;;;;19.95;65.98;100626.58;1805498;79;21043;-63
2022/05/04 07:10:02;;;;;;;10.98;5.55;;;;;;;19.95;64.23;100622.66;1805076;79;21094;-63
2022/05/04 07:12:29;;;;;;;10.43;6.05;;;;;;;20.14;64.17;100626.73;1805330;79;21065;-61
2022/05/04 07:14:57;;;;;;;9.45;6.03;;;;;;;20.47;64.38;100624.06;1805040;79;21014;-62
2022/05/04 07:17:27;;;;;;;10.15;6.00;;;;;;;20.71;63.34;100619.39;1782807;80;21500;-64
2022/05/04 07:19:54;;;;;;;11.28;5.92;;;;;;;20.95;65.41;100623.02;1782974;80;21020;-62
2022/05/04 07:22:23;;;;;;;9.60;5.92;;;;;;;20.99;63.19;100626.20;1783027;80;20977;-62
2022/05/04 07:24:51;;;;;;;9.83;5.40;;;;;;;20.95;61.83;100633.97;1783009;80;21422;-62
2022/05/04 07:27:19;;;;;;;9.73;5.37;;;;;;;20.82;60.65;100630.24;1782959;80;21056;-62
2022/05/04 07:29:47;;;;;;;8.28;5.40;;;;;;;20.88;62.00;100627.10;1782674;80;21504;-63
2022/05/04 07:32:15;;;;;;;9.60;5.10;;;;;;;21.05;60.05;100633.52;1782908;80;21023;-62
2022/05/04 07:34:44;;;;;;;10.58;5.72;;;;;;;20.93;59.54;100627.55;1782925;80;21048;-62
2022/05/04 07:37:11;;;;;;;9.48;5.30;;;;;;;21.16;59.50;100624.73;1782839;80;20973;-62
2022/05/04 07:42:26;;;;;;;8.23;5.12;;;;;;;21.64;59.31;100625.34;1782716;80;21013;-62
2022/05/04 07:45:05;;;;;;;7.17;5.10;;;;;;;21.39;58.52;100623.56;1782982;80;21504;-63
2022/05/04 07:47:35;;;;;;;9.98;5.17;;;;;;;21.45;60.11;100616.99;1782983;80;21008;-63
2022/05/04 07:50:11;;;;;;;9.05;5.05;;;;;;;21.77;57.59;100612.78;1782928;80;21000;-62
2022/05/04 07:52:40;;;;;;;9.13;4.85;;;;;;;22.04;58.83;100615.21;1783033;80;20981;-63
2022/05/04 07:55:10;;;;;;;7.72;4.70;;;;;;;22.18;57.27;100621.80;1782952;80;21044;-63
2022/05/04 07:57:38;;;;;;;6.75;4.50;;;;;;;22.21;56.88;100621.53;1782860;80;21040;-63
2022/05/04 08:05:41;;;;;;;9.90;5.33;;;;;;;21.67;56.34;100618.50;1782753;80;21032;-63
2022/05/04 08:08:09;;;;;;;9.55;4.90;;;;;;;21.55;57.13;100612.59;1782627;80;21099;-63
2022/05/04 08:10:36;;;;;;;13.70;5.05;;;;;;;21.37;57.08;100614.16;1782585;80;21539;-63
2022/05/04 08:13:04;;;;;;;9.58;5.12;;;;;;;21.11;57.60;100616.47;1782574;80;21009;-63
2022/05/04 08:15:31;;;;;;;9.10;5.17;;;;;;;20.88;57.91;100619.25;1779594;80;21597;-63
2022/05/04 08:17:59;;;;;;;6.78;4.90;;;;;;;20.99;58.44;100615.73;1765617;81;21052;-62
2022/05/04 08:20:28;;;;;;;11.33;4.90;;;;;;;21.11;58.48;100617.77;1765687;81;20998;-63
2022/05/04 08:22:59;;;;;;;7.58;4.65;;;;;;;21.50;56.80;100616.58;1765962;81;21099;-63
2022/05/04 08:25:26;;;;;;;6.28;4.53;;;;;;;21.87;56.54;100618.03;1765816;81;21001;-63
2022/05/04 08:27:54;;;;;;;6.85;4.00;;;;;;;22.02;53.97;100621.08;1765763;81;21021;-64
2022/05/04 08:30:21;;;;;;;7.83;4.30;;;;;;;22.15;53.94;100613.73;1764915;81;21014;-63
2022/05/04 08:32:49;;;;;;;7.33;4.40;;;;;;;22.23;52.65;100613.04;1765117;81;21072;-63
2022/05/04 08:35:17;;;;;;;8.08;4.20;;;;;;;22.50;54.21;100617.55;1765410;81;21541;-63
2022/05/04 08:37:45;;;;;;;4.58;3.70;;;;;;;22.76;51.33;100619.55;1764252;81;21009;-63
2022/05/04 08:40:13;;;;;;;7.00;4.10;;;;;;;23.03;52.70;100614.81;1765229;81;21612;-63
2022/05/04 08:42:44;;;;;;;6.40;3.70;;;;;;;23.15;52.81;100614.14;1765309;81;21005;-63
2022/05/04 08:45:14;;;;;;;8.43;3.55;;;;;;;22.76;51.20;100620.37;1765466;81;21013;-63
2022/05/04 08:47:44;;;;;;;7.80;3.08;;;;;;;22.94;49.77;100615.19;1765362;81;21445;-63
2022/05/04 08:50:18;;;;;;;6.55;3.30;;;;;;;23.02;48.83;100614.98;1764966;81;21021;-63
2022/05/04 08:52:56;;;;;;;4.30;3.60;;;;;;;23.23;48.86;100608.98;1765137;81;21013;-63
2022/05/04 08:55:24;;;;;;;6.60;3.55;;;;;;;22.93;49.40;100612.23;1764806;81;21025;-63
2022/05/04 08:57:54;;;;;;;4.55;3.40;;;;;;;22.77;50.05;100610.23;1765163;81;21004;-63
2022/05/04 09:00:22;;;;;;;4.33;3.22;;;;;;;22.92;50.56;100608.44;1765124;81;21052;-64
2022/05/04 09:02:49;;;;;;;5.40;3.22;;;;;;;23.16;50.48;100603.50;1764976;81;21068;-64
2022/05/04 09:05:23;;;;;;;4.50;3.25;;;;;;;23.04;47.95;100593.36;1765246;81;21093;-64
2022/05/04 09:07:54;;;;;;;5.15;3.72;;;;;;;23.08;49.94;100592.91;1765005;81;21068;-64
2022/05/04 09:10:24;;;;;;;5.72;3.40;;;;;;;23.05;48.79;100593.18;1765233;81;21095;-64
2022/05/04 09:12:54;;;;;;;4.05;3.20;;;;;;;23.06;49.69;100596.16;1765218;81;21029;-64
2022/05/04 09:15:31;;;;;;;7.83;3.72;;;;;;;23.32;48.95;100587.59;1765121;81;21048;-63
2022/05/04 09:18:15;;;;;;;7.10;3.52;;;;;;;23.44;47.82;100585.08;1765289;81;22259;-64
2022/05/04 09:20:49;;;;;;;7.20;3.60;;;;;;;23.49;48.66;100582.81;1764954;81;21018;-64
2022/05/04 09:23:28;;;;;;;5.90;3.62;;;;;;;23.74;46.75;100580.40;1765369;81;21025;-63
2022/05/04 09:25:59;;;;;;;7.85;3.98;;;;;;;23.98;48.26;100583.25;1765183;81;21535;-64
2022/05/04 09:28:28;;;;;;;7.50;4.03;;;;;;;24.16;48.79;100581.08;1764762;81;21497;-63
2022/05/04 09:31:02;;;;;;;7.05;3.90;;;;;;;24.25;49.56;100580.63;1765254;81;21030;-64
2022/05/04 09:33:34;;;;;;;6.92;3.67;;;;;;;23.78;49.54;100587.03;1764920;81;21869;-64
2022/05/04 09:36:05;;;;;;;5.97;3.67;;;;;;;23.24;48.48;100586.19;1765590;81;20993;-65
2022/05/04 09:46:54;;;;;;;5.95;3.40;;;;;;;23.37;47.71;100582.20;1765985;81;21053;-64
2022/05/04 09:49:27;;;;;;;5.17;3.33;;;;;;;23.66;46.26;100577.23;1765781;81;20997;-64
2022/05/04 09:51:55;;;;;;;4.95;3.20;;;;;;;23.74;47.04;100572.05;1766105;81;20984;-64
2022/05/04 09:54:27;;;;;;;5.42;3.17;;;;;;;23.80;46.66;100570.62;1765808;81;21509;-63
2022/05/04 09:57:00;;;;;;;4.90;3.25;;;;;;;23.78;44.46;100569.95;1766323;81;21013;-63
2022/05/04 09:59:31;;;;;;;5.92;3.50;;;;;;;23.62;46.93;100566.66;1765882;81;21005;-64
2022/05/04 10:02:00;;;;;;;3.17;2.80;;;;;;;23.53;47.10;100561.02;1764925;81;21525;-64
2022/05/04 10:04:28;;;;;;;7.35;3.30;;;;;;;23.26;46.23;100565.86;1766080;81;20978;-63
2022/05/04 10:06:56;;;;;;;6.45;3.12;;;;;;;23.50;47.57;100556.89;1765953;81;21037;-63
2022/05/04 10:09:23;;;;;;;4.25;3.08;;;;;;;23.87;47.72;100561.66;1765764;81;21120;-63
2022/05/04 10:11:57;;;;;;;5.45;3.33;;;;;;;24.31;46.41;100558.50;1765561;81;21085;-64
2022/05/04 10:14:24;;;;;;;6.10;3.25;;;;;;;24.30;46.88;100562.09;1765825;81;21052;-64
2022/05/04 10:17:20;;;;;;;5.90;3.12;;;;;;;24.60;45.66;100556.04;1759092;81;21021;-64
2022/05/04 10:20:14;;;;;;;5.80;3.27;;;;;;;24.83;46.28;100558.09;1762432;81;21009;-63
2022/05/04 10:23:00;;;;;;;4.78;3.33;;;;;;;25.30;44.97;100554.44;1810620;79;21028;-64
2022/05/04 10:25:34;;;;;;;4.83;3.20;;;;;;;25.26;44.92;100556.25;1810848;79;20984;-64
2022/05/04 10:28:10;;;;;;;4.83;2.72;;;;;;;25.37;47.00;100550.69;1810756;79;21060;-64
2022/05/04 10:30:58;;;;;;;7.92;3.50;;;;;;;25.69;44.64;100545.08;1810518;79;21652;-64
2022/05/04 10:33:33;;;;;;;4.92;3.30;;;;;;;25.58;45.38;100548.38;1810515;78;21014;-64
2022/05/04 10:36:17;;;;;;;3.72;2.98;;;;;;;25.25;44.43;100546.22;1810535;79;21036;-64
2022/05/04 10:38:51;;;;;;;3.45;2.92;;;;;;;25.17;46.53;100550.94;1809491;78;21010;-64
2022/05/04 10:41:36;;;;;;;6.58;3.35;;;;;;;25.30;44.99;100545.72;1810625;79;21057;-64
2022/05/04 10:44:07;;;;;;;5.20;3.08;;;;;;;25.23;46.26;100542.11;1810453;79;21033;-64
2022/05/04 10:46:37;;;;;;;6.75;3.12;;;;;;;25.50;45.41;100537.83;1810635;79;21017;-63
2022/05/04 10:49:08;;;;;;;3.80;3.00;;;;;;;25.51;45.34;100532.09;1810450;79;21053;-63
2022/05/04 10:51:38;;;;;;;5.80;3.35;;;;;;;25.15;45.21;100535.80;1810747;79;21115;-64
2022/05/04 10:54:21;;;;;;;5.03;3.33;;;;;;;24.15;45.25;100528.16;1810642;79;21080;-64
2022/05/04 10:56:52;;;;;;;10.82;3.30;;;;;;;24.94;44.93;100523.55;1810784;78;21037;-64
2022/05/04 10:59:32;;;;;;;4.85;3.25;;;;;;;24.58;47.44;100517.21;1810351;79;20982;-64
2022/05/04 11:02:04;;;;;;;5.90;3.50;;;;;;;25.04;45.69;100510.25;1810541;79;21061;-63
2022/05/04 11:04:35;;;;;;;4.67;3.00;;;;;;;25.26;45.12;100513.60;1810632;79;21088;-63
2022/05/04 11:07:08;;;;;;;4.62;3.00;;;;;;;25.25;43.74;100499.30;1810521;79;21029;-63
2022/05/04 11:09:43;;;;;;;6.45;2.90;;;;;;;25.39;44.76;100509.19;1772139;81;21037;-63
2022/05/04 11:12:12;;;;;;;6.87;3.08;;;;;;;25.04;42.81;100501.03;1772430;79;21544;-63
2022/05/04 11:14:42;;;;;;;4.55;3.40;;;;;;;25.04;42.81;100501.03;1772372;79;21552;-64
2022/05/04 11:17:12;;;;;;;4.20;2.98;;;;;;;25.22;43.83;100499.11;1782365;79;21017;-63
2022/05/04 11:19:48;;;;;;;5.95;3.50;;;;;;;25.49;44.71;100498.48;1765422;81;21009;-64
2022/05/04 11:22:18;;;;;;;4.87;3.40;;;;;;;24.75;43.16;100500.97;1793062;80;21010;-63
2022/05/04 11:24:45;;;;;;;4.03;3.20;;;;;;;24.33;43.17;100497.81;1792928;80;21062;-63
2022/05/04 11:27:17;;;;;;;6.37;3.55;;;;;;;24.15;44.35;100493.97;1784224;80;21049;-63
2022/05/04 11:29:44;;;;;;;6.05;3.25;;;;;;;23.94;44.56;100493.01;1791513;80;21010;-64
2022/05/04 11:32:19;;;;;;;8.35;3.50;;;;;;;23.74;44.18;100489.72;1792373;78;21049;-63
2022/05/04 11:34:42;;;;;;;5.60;3.42;;;;;;;23.67;45.49;100482.13;1790629;80;21050;-63
2022/05/04 11:37:14;;;;;;;5.75;3.20;;;;;;;23.37;46.21;100482.88;1786228;80;21018;-63
2022/05/04 11:47:15;;;;;;;6.83;3.62;;;;;;;22.33;50.62;100468.33;1762937;80;21561;-63
2022/05/04 11:49:42;;;;;;;8.40;3.50;;;;;;;22.16;51.41;100463.34;1751550;80;21117;-62
2022/05/04 11:52:10;;;;;;;3.58;2.65;;;;;;;22.27;52.91;100459.73;1751557;82;21030;-63
2022/05/04 11:54:39;;;;;;;4.33;3.22;;;;;;;22.92;52.98;100452.25;1752145;82;21082;-63
2022/05/04 12:07:09;;;;;;;5.40;2.87;;;;;;;24.04;45.64;100451.66;1800391;78;21112;-62
2022/05/04 12:09:37;;;;;;;5.08;3.02;;;;;;;24.03;47.35;100452.65;1801002;79;21002;-62
2022/05/04 12:12:06;;;;;;;6.10;3.15;;;;;;;23.95;45.96;100448.66;1772718;81;21033;-62
2022/05/04 12:14:33;;;;;;;4.78;2.90;;;;;;;23.79;47.09;100443.63;1773142;81;20962;-62